createdAt,value
2022-09-16T00:00:29.987Z,12.66
2022-09-16T00:02:57.237Z,12.67
2022-09-16T00:05:24.249Z,12.64
2022-09-16T00:07:50.987Z,12.58
2022-09-16T00:10:17.632Z,12.61
2022-09-16T00:12:44.280Z,12.61
2022-09-16T00:15:11.364Z,12.53
2022-09-16T00:17:38.471Z,12.52
2022-09-16T00:20:06.466Z,12.52
2022-09-16T00:22:33.387Z,12.52
2022-09-16T00:25:00.025Z,12.42
2022-09-16T00:27:26.750Z,12.48
2022-09-16T00:29:53.705Z,12.45
2022-09-16T00:32:20.269Z,12.44
2022-09-16T00:34:46.842Z,12.40
2022-09-16T00:37:13.278Z,12.40
2022-09-16T00:39:39.752Z,12.35
2022-09-16T00:42:11.954Z,12.35
2022-09-16T00:44:59.619Z,12.33
2022-09-16T00:47:43.237Z,12.39
2022-09-16T00:50:10.063Z,12.41
2022-09-16T00:52:37.884Z,12.40
2022-09-16T00:55:08.727Z,12.37
2022-09-16T00:57:36.062Z,12.38
2022-09-16T01:00:05.793Z,12.33
2022-09-16T01:02:32.412Z,12.32
2022-09-16T01:05:22.333Z,12.24
2022-09-16T01:07:51.202Z,12.26
2022-09-16T01:10:21.172Z,12.28
2022-09-16T01:12:57.275Z,12.21
2022-09-16T01:15:31.968Z,12.21
2022-09-16T01:18:04.606Z,12.22
2022-09-16T01:20:58.875Z,12.19
2022-09-16T01:24:16.616Z,12.19
2022-09-16T01:26:58.194Z,12.20
2022-09-16T01:29:41.804Z,12.19
2022-09-16T01:32:17.252Z,12.21
2022-09-16T01:35:10.665Z,12.23
2022-09-16T01:37:47.270Z,12.20
2022-09-16T01:40:21.010Z,12.19
2022-09-16T01:43:10.505Z,12.16
2022-09-16T01:45:48.830Z,12.14
2022-09-16T01:48:37.423Z,12.16
2022-09-16T01:51:15.890Z,12.14
2022-09-16T01:53:51.622Z,12.15
2022-09-16T01:56:28.859Z,12.13
2022-09-16T01:59:17.057Z,12.11
2022-09-16T02:01:57.501Z,12.11
2022-09-16T02:04:29.840Z,12.11
2022-09-16T02:06:59.792Z,12.04
2022-09-16T02:09:32.615Z,12.04
2022-09-16T02:12:05.584Z,12.09
2022-09-16T02:14:39.494Z,12.07
2022-09-16T02:17:10.356Z,12.09
2022-09-16T02:20:06.373Z,12.11
2022-09-16T02:22:39.219Z,12.08
2022-09-16T02:25:10.431Z,12.13
2022-09-16T02:27:39.258Z,12.17
2022-09-16T02:30:09.850Z,12.14
2022-09-16T02:32:42.134Z,12.11
2022-09-16T02:35:12.300Z,12.12
2022-09-16T02:37:51.267Z,12.10
2022-09-16T02:40:26.946Z,12.07
2022-09-16T02:42:53.768Z,12.12
2022-09-16T02:45:26.580Z,12.13
2022-09-16T02:48:04.977Z,12.18
2022-09-16T02:50:52.616Z,12.17
2022-09-16T02:53:40.675Z,12.17
2022-09-16T02:56:31.360Z,12.16
2022-09-16T02:58:58.246Z,12.18
2022-09-16T03:01:25.856Z,12.16
2022-09-16T03:03:55.172Z,12.12
2022-09-16T03:06:25.022Z,12.11
2022-09-16T03:08:54.122Z,12.13
2022-09-16T03:11:38.207Z,12.16
2022-09-16T03:14:21.450Z,12.21
2022-09-16T03:17:03.091Z,12.16
2022-09-16T03:20:03.655Z,12.17
2022-09-16T03:22:42.143Z,12.21
2022-09-16T03:25:39.567Z,12.16
2022-09-16T03:28:16.850Z,12.15
2022-09-16T03:31:08.880Z,12.16
2022-09-16T03:34:12.690Z,12.12
2022-09-16T03:36:52.590Z,12.14
2022-09-16T03:39:19.233Z,12.15
2022-09-16T03:41:45.919Z,12.12
2022-09-16T03:44:12.354Z,12.15
2022-09-16T03:46:39.503Z,12.10
2022-09-16T03:49:06.043Z,12.12
2022-09-16T03:51:32.636Z,12.07
2022-09-16T03:53:59.151Z,12.13
2022-09-16T03:56:25.626Z,12.21
2022-09-16T03:58:52.385Z,12.16
2022-09-16T04:01:19.041Z,12.13
2022-09-16T04:03:45.585Z,12.14
2022-09-16T04:06:12.039Z,12.08
2022-09-16T04:08:39.770Z,12.10
2022-09-16T04:11:07.052Z,12.03
2022-09-16T04:13:35.220Z,12.04
2022-09-16T04:16:03.985Z,12.04
2022-09-16T04:18:31.992Z,12.05
2022-09-16T04:20:59.962Z,12.07
2022-09-16T04:23:27.752Z,12.06
2022-09-16T04:25:59.067Z,12.07
2022-09-16T04:28:26.105Z,12.07
2022-09-16T04:30:52.769Z,12.08
2022-09-16T04:33:19.705Z,12.08
2022-09-16T04:35:46.261Z,12.10
2022-09-16T04:38:12.717Z,12.12
2022-09-16T04:40:40.091Z,12.09
2022-09-16T04:43:06.716Z,12.09
2022-09-16T04:45:33.179Z,12.08
2022-09-16T04:47:59.649Z,12.13
2022-09-16T04:50:27.623Z,12.14
2022-09-16T04:52:54.139Z,12.16
2022-09-16T04:55:23.301Z,12.13
2022-09-16T04:57:50.842Z,12.15
2022-09-16T05:00:17.396Z,12.15
2022-09-16T05:02:45.688Z,12.20
2022-09-16T05:05:12.532Z,12.19
2022-09-16T05:07:39.057Z,12.20
2022-09-16T05:10:06.067Z,12.19
2022-09-16T05:12:32.540Z,12.17
2022-09-16T05:14:59.069Z,12.17
2022-09-16T05:17:49.379Z,12.16
2022-09-16T05:20:12.686Z,12.21
2022-09-16T05:22:39.469Z,12.19
2022-09-16T05:25:06.488Z,12.19
2022-09-16T05:27:34.148Z,12.21
2022-09-16T05:30:00.591Z,12.26
2022-09-16T05:32:27.510Z,12.21
2022-09-16T05:34:54.783Z,12.23
2022-09-16T05:37:21.295Z,12.24
2022-09-16T05:39:47.791Z,12.27
2022-09-16T05:42:14.368Z,12.30
2022-09-16T05:44:40.834Z,12.35
2022-09-16T05:47:07.327Z,12.30
2022-09-16T05:49:33.812Z,12.28
2022-09-16T05:52:00.289Z,12.32
2022-09-16T05:54:26.723Z,12.31
2022-09-16T05:56:53.212Z,12.34
2022-09-16T05:59:19.913Z,12.37
2022-09-16T06:01:46.696Z,12.42
2022-09-16T06:04:15.206Z,12.42
2022-09-16T06:06:46.879Z,12.46
2022-09-16T06:09:17.989Z,12.48
2022-09-16T06:11:46.861Z,12.48
2022-09-16T06:14:14.993Z,12.43
2022-09-16T06:16:41.926Z,12.40
2022-09-16T06:19:13.112Z,12.43
2022-09-16T06:21:40.734Z,12.39
2022-09-16T06:24:08.855Z,12.44
2022-09-16T06:26:40.340Z,12.38
2022-09-16T06:29:07.160Z,12.40
2022-09-16T06:31:35.356Z,12.42
2022-09-16T06:34:02.469Z,12.42
2022-09-16T06:36:34.892Z,12.43
2022-09-16T06:39:01.667Z,12.49
2022-09-16T06:41:28.438Z,12.48
2022-09-16T06:43:58.078Z,12.53
2022-09-16T06:46:26.702Z,12.51
2022-09-16T06:48:58.515Z,12.51
2022-09-16T06:51:29.250Z,12.57
2022-09-16T06:54:00.787Z,12.62
2022-09-16T06:56:27.403Z,12.65
2022-09-16T06:58:55.816Z,12.66
2022-09-16T07:01:25.021Z,12.64
2022-09-16T07:03:53.462Z,12.71
2022-09-16T07:06:22.147Z,12.69
2022-09-16T07:08:49.188Z,12.73
2022-09-16T07:11:20.931Z,12.81
2022-09-16T07:13:49.166Z,12.83
2022-09-16T07:16:18.546Z,12.78
2022-09-16T07:18:46.872Z,12.78
2022-09-16T07:21:15.658Z,12.72
2022-09-16T07:23:43.388Z,12.68
2022-09-16T07:26:17.671Z,12.67
2022-09-16T07:28:48.523Z,12.72
2022-09-16T07:31:19.233Z,12.84
2022-09-16T07:33:49.621Z,12.91
2022-09-16T07:36:18.863Z,12.93
2022-09-16T07:38:45.627Z,13.02
2022-09-16T07:41:18.544Z,13.08
2022-09-16T07:43:45.855Z,13.15
2022-09-16T07:46:13.883Z,13.07
2022-09-16T07:48:40.774Z,13.11
2022-09-16T07:51:10.544Z,13.10
2022-09-16T07:53:37.194Z,13.10
2022-09-16T07:56:06.311Z,13.19
2022-09-16T07:58:32.954Z,13.29
2022-09-16T08:01:04.149Z,13.26
2022-09-16T08:03:32.395Z,13.21
2022-09-16T08:06:04.296Z,13.28
2022-09-16T08:08:31.421Z,13.41
2022-09-16T08:10:59.426Z,13.49
2022-09-16T08:13:27.653Z,13.68
2022-09-16T08:15:54.461Z,13.90
2022-09-16T08:18:21.512Z,14.01
2022-09-16T08:20:48.112Z,14.16
2022-09-16T08:23:14.691Z,14.29
2022-09-16T08:25:42.345Z,14.18
2022-09-16T08:28:17.089Z,14.13
2022-09-16T08:30:44.231Z,14.18
2022-09-16T08:33:10.888Z,14.00
2022-09-16T08:35:37.405Z,13.97
2022-09-16T08:38:06.857Z,13.97
2022-09-16T08:40:36.350Z,13.90
2022-09-16T08:43:13.306Z,14.01
2022-09-16T08:45:50.211Z,14.42
2022-09-16T08:48:48.520Z,14.82
2022-09-16T08:51:19.151Z,14.75
2022-09-16T08:53:57.692Z,14.97
2022-09-16T08:56:27.522Z,15.26
2022-09-16T08:58:57.450Z,15.12
2022-09-16T09:01:50.463Z,14.95
2022-09-16T09:04:17.381Z,15.25
2022-09-16T09:06:59.339Z,15.08
2022-09-16T09:09:28.536Z,15.15
2022-09-16T09:12:31.054Z,15.05
2022-09-16T09:15:03.959Z,14.94
2022-09-16T09:17:48.931Z,14.78
2022-09-16T09:20:50.805Z,14.74
2022-09-16T09:23:58.434Z,14.58
2022-09-16T09:26:42.625Z,14.78
2022-09-16T09:29:18.173Z,14.87
2022-09-16T09:32:06.258Z,14.74
2022-09-16T09:34:52.057Z,14.59
2022-09-16T09:37:42.962Z,14.81
2022-09-16T09:40:49.699Z,14.90
2022-09-16T09:43:24.659Z,14.58
2022-09-16T09:45:58.483Z,14.68
2022-09-16T09:48:37.962Z,15.07
2022-09-16T09:51:32.471Z,15.48
2022-09-16T09:54:06.116Z,15.33
2022-09-16T09:56:40.937Z,15.30
2022-09-16T09:59:31.093Z,15.15
2022-09-16T10:01:58.744Z,14.79
2022-09-16T10:04:25.377Z,14.54
2022-09-16T10:06:54.598Z,14.41
2022-09-16T10:09:22.640Z,14.29
2022-09-16T10:11:52.526Z,14.10
2022-09-16T10:14:31.281Z,14.14
2022-09-16T10:17:02.878Z,14.17
2022-09-16T10:19:32.777Z,14.18
2022-09-16T10:22:21.613Z,14.14
2022-09-16T10:24:56.387Z,14.19
2022-09-16T10:27:29.624Z,14.11
2022-09-16T10:30:16.492Z,14.42
2022-09-16T10:32:54.342Z,14.51
2022-09-16T10:35:24.365Z,14.36
2022-09-16T10:37:59.699Z,14.56
2022-09-16T10:40:27.077Z,14.61
2022-09-16T10:42:59.727Z,14.43
2022-09-16T10:45:27.855Z,14.45
2022-09-16T10:48:19.848Z,14.72
2022-09-16T10:50:57.203Z,14.87
2022-09-16T10:53:31.296Z,15.08
2022-09-16T10:56:04.282Z,15.11
2022-09-16T10:58:31.101Z,15.57
2022-09-16T11:01:03.594Z,15.87
2022-09-16T11:03:40.658Z,15.94
2022-09-16T11:06:37.734Z,15.71
2022-09-16T11:09:31.485Z,15.34
2022-09-16T11:12:17.413Z,15.52
2022-09-16T11:15:22.769Z,15.78
2022-09-16T11:17:55.718Z,15.56
2022-09-16T11:20:44.059Z,15.70
2022-09-16T11:23:16.796Z,16.24
2022-09-16T11:26:36.855Z,16.05
2022-09-16T11:29:27.413Z,15.86
2022-09-16T11:32:16.069Z,15.60
2022-09-16T11:35:05.812Z,15.54
2022-09-16T11:38:07.862Z,15.89
2022-09-16T11:40:58.139Z,16.13
2022-09-16T11:43:55.660Z,16.25
2022-09-16T11:46:49.183Z,16.54
2022-09-16T11:49:24.798Z,16.47
2022-09-16T11:52:04.984Z,16.36
2022-09-16T11:54:58.417Z,16.25
2022-09-16T11:57:29.759Z,16.40
2022-09-16T12:00:00.816Z,16.56
2022-09-16T12:02:42.685Z,16.73
2022-09-16T12:05:18.916Z,16.72
2022-09-16T12:08:02.979Z,16.78
2022-09-16T12:10:46.941Z,16.90
2022-09-16T12:13:20.770Z,17.20
2022-09-16T12:16:02.184Z,17.55
2022-09-16T12:18:33.244Z,17.00
2022-09-16T12:21:14.383Z,16.25
2022-09-16T12:23:45.354Z,16.04
2022-09-16T12:26:24.095Z,16.12
2022-09-16T12:29:03.931Z,16.52
2022-09-16T12:31:51.581Z,16.67
2022-09-16T12:34:26.616Z,16.77
2022-09-16T12:37:01.047Z,16.54
2022-09-16T12:39:28.767Z,16.23
2022-09-16T12:42:07.026Z,15.95
2022-09-16T12:44:52.014Z,15.75
2022-09-16T12:47:21.307Z,15.56
2022-09-16T12:50:09.436Z,15.39
2022-09-16T12:52:46.628Z,15.25
2022-09-16T12:55:35.355Z,15.67
2022-09-16T12:58:22.519Z,15.91
2022-09-16T13:01:30.253Z,16.01
2022-09-16T13:04:04.569Z,16.21
2022-09-16T13:06:36.685Z,16.37
2022-09-16T13:09:23.393Z,16.51
2022-09-16T13:15:07.094Z,16.41
2022-09-16T13:17:37.206Z,16.42
2022-09-16T13:20:33.443Z,16.55
2022-09-16T13:23:08.821Z,16.71
2022-09-16T13:25:55.003Z,16.69
2022-09-16T13:28:26.712Z,16.86
2022-09-16T13:30:53.477Z,16.67
2022-09-16T13:33:29.228Z,16.39
2022-09-16T13:36:22.530Z,16.07
2022-09-16T13:39:00.590Z,15.58
2022-09-16T13:41:37.702Z,14.80
2022-09-16T13:44:39.852Z,14.54
2022-09-16T13:47:09.121Z,14.45
2022-09-16T13:49:44.897Z,14.59
2022-09-16T13:52:13.324Z,14.69
2022-09-16T13:55:09.575Z,14.53
2022-09-16T13:57:53.189Z,14.39
2022-09-16T14:01:01.138Z,14.43
2022-09-16T14:03:34.195Z,14.47
2022-09-16T14:06:26.891Z,14.59
2022-09-16T14:08:53.469Z,14.77
2022-09-16T14:11:35.734Z,14.86
2022-09-16T14:14:07.651Z,14.74
2022-09-16T14:16:39.910Z,14.79
2022-09-16T14:19:18.802Z,14.79
2022-09-16T14:21:47.901Z,14.75
2022-09-16T14:24:19.465Z,14.88
2022-09-16T14:26:57.220Z,15.02
2022-09-16T14:29:27.122Z,15.04
2022-09-16T14:31:55.668Z,14.98
2022-09-16T14:34:30.824Z,14.93
2022-09-16T14:36:57.978Z,14.94
2022-09-16T14:39:26.929Z,15.06
2022-09-16T14:42:16.016Z,15.01
2022-09-16T14:44:46.696Z,15.04
2022-09-16T14:47:50.539Z,14.99
2022-09-16T14:50:25.300Z,15.07
2022-09-16T14:53:00.747Z,15.02
2022-09-16T14:55:30.989Z,15.03
2022-09-16T14:57:58.781Z,15.00
2022-09-16T15:00:47.889Z,15.04
2022-09-16T15:03:31.181Z,15.05
2022-09-16T15:06:04.944Z,15.06
2022-09-16T15:08:55.804Z,15.14
2022-09-16T15:11:47.123Z,15.17
2022-09-16T15:14:13.521Z,15.11
2022-09-16T15:16:44.211Z,15.20
2022-09-16T15:19:24.977Z,15.16
2022-09-16T15:21:52.165Z,15.10
2022-09-16T15:24:27.673Z,15.06
2022-09-16T15:26:54.937Z,15.03
2022-09-16T15:29:24.388Z,15.00
2022-09-16T15:31:51.761Z,14.95
2022-09-16T15:34:21.092Z,15.04
2022-09-16T15:36:56.335Z,15.02
2022-09-16T15:39:30.149Z,14.85
2022-09-16T15:42:26.277Z,14.78
2022-09-16T15:44:56.517Z,14.73
2022-09-16T15:47:33.138Z,14.72
2022-09-16T15:50:06.583Z,14.74
2022-09-16T15:52:36.127Z,14.69
2022-09-16T15:55:05.241Z,14.72
2022-09-16T15:57:38.811Z,14.65
2022-09-16T16:00:16.177Z,14.69
2022-09-16T16:03:05.227Z,14.62
2022-09-16T16:05:32.995Z,14.58
2022-09-16T16:08:09.667Z,14.46
2022-09-16T16:10:36.512Z,14.25
2022-09-16T16:13:04.683Z,13.92
2022-09-16T16:15:35.013Z,13.42
2022-09-16T16:18:05.026Z,13.29
2022-09-16T16:20:34.083Z,13.14
2022-09-16T16:23:02.266Z,13.03
2022-09-16T16:25:29.521Z,12.96
2022-09-16T16:27:58.225Z,12.85
2022-09-16T16:30:24.686Z,12.70
2022-09-16T16:32:51.151Z,12.61
2022-09-16T16:35:17.638Z,12.58
2022-09-16T16:37:46.755Z,12.44
2022-09-16T16:40:14.986Z,12.51
2022-09-16T16:42:43.576Z,12.52
2022-09-16T16:45:13.184Z,12.64
2022-09-16T16:47:40.116Z,12.61
2022-09-16T16:50:08.313Z,12.59
2022-09-16T16:52:34.801Z,12.63
2022-09-16T16:55:01.263Z,12.58
2022-09-16T16:57:27.922Z,12.54
2022-09-16T16:59:54.389Z,12.54
2022-09-16T17:02:20.994Z,12.57
2022-09-16T17:04:47.527Z,12.58
2022-09-16T17:07:25.845Z,12.56
2022-09-16T17:09:56.911Z,12.57
2022-09-16T17:12:23.410Z,12.63
2022-09-16T17:14:49.885Z,12.65
2022-09-16T17:17:16.423Z,12.59
2022-09-16T17:19:42.898Z,12.65
2022-09-16T17:22:09.642Z,12.64
2022-09-16T17:24:36.603Z,12.61
2022-09-16T17:27:04.150Z,12.52
2022-09-16T17:29:30.644Z,12.56
2022-09-16T17:31:57.350Z,12.59
2022-09-16T17:34:26.402Z,12.50
2022-09-16T17:36:53.338Z,12.47
2022-09-16T17:39:21.522Z,12.50
2022-09-16T17:41:49.254Z,12.52
2022-09-16T17:44:17.040Z,12.50
2022-09-16T17:46:44.773Z,12.45
2022-09-16T17:49:20.230Z,12.48
2022-09-16T17:51:46.785Z,12.49
2022-09-16T17:54:13.961Z,12.47
2022-09-16T17:56:44.881Z,12.48
2022-09-16T17:59:15.665Z,12.45
2022-09-16T18:01:42.194Z,12.48
2022-09-16T18:04:09.053Z,12.47
2022-09-16T18:06:41.663Z,12.45
2022-09-16T18:09:08.528Z,12.47
2022-09-16T18:11:36.658Z,12.44
2022-09-16T18:14:05.569Z,12.45
2022-09-16T18:16:32.706Z,12.48
2022-09-16T18:19:01.465Z,12.47
2022-09-16T18:21:28.528Z,12.41
2022-09-16T18:24:02.413Z,12.44
2022-09-16T18:26:30.375Z,12.45
2022-09-16T18:29:12.833Z,12.51
2022-09-16T18:31:42.170Z,12.54
2022-09-16T18:34:09.052Z,12.53
2022-09-16T18:36:37.586Z,12.51
2022-09-16T18:39:05.645Z,12.52
2022-09-16T18:41:36.538Z,12.55
2022-09-16T18:44:07.382Z,12.53
2022-09-16T18:46:36.630Z,12.53
2022-09-16T18:49:04.124Z,12.52
2022-09-16T18:51:30.587Z,12.54
2022-09-16T18:54:00.750Z,12.53
2022-09-16T18:56:29.249Z,12.57
2022-09-16T18:59:20.515Z,12.59
2022-09-16T19:01:48.840Z,12.60
2022-09-16T19:04:18.293Z,12.58
2022-09-16T19:06:47.823Z,12.54
2022-09-16T19:09:16.710Z,12.49
2022-09-16T19:11:43.810Z,12.47
2022-09-16T19:14:13.923Z,12.45
2022-09-16T19:16:45.524Z,12.47
2022-09-16T19:19:14.759Z,12.46
2022-09-16T19:21:42.407Z,12.47
2022-09-16T19:24:14.344Z,12.45
2022-09-16T19:26:42.287Z,12.46
2022-09-16T19:29:09.856Z,12.48
2022-09-16T19:31:39.560Z,12.51
2022-09-16T19:34:06.792Z,12.48
2022-09-16T19:36:35.475Z,12.52
2022-09-16T19:39:03.256Z,12.55
2022-09-16T19:41:31.928Z,12.50
2022-09-16T19:44:01.207Z,12.42
2022-09-16T19:46:29.736Z,12.37
2022-09-16T19:48:56.507Z,12.36
2022-09-16T19:51:24.538Z,12.33
2022-09-16T19:53:52.571Z,12.33
2022-09-16T19:56:24.699Z,12.32
2022-09-16T19:58:52.959Z,12.31
2022-09-16T20:01:27.640Z,12.29
2022-09-16T20:03:54.802Z,12.31
2022-09-16T20:06:32.469Z,12.24
2022-09-16T20:09:00.992Z,12.23
2022-09-16T20:11:33.689Z,12.19
2022-09-16T20:14:03.313Z,12.16
2022-09-16T20:16:35.585Z,12.16
2022-09-16T20:19:07.254Z,12.15
2022-09-16T20:21:35.120Z,12.16
2022-09-16T20:24:05.659Z,12.18
2022-09-16T20:26:33.262Z,12.16
2022-09-16T20:29:00.190Z,12.17
2022-09-16T20:31:29.535Z,12.12
2022-09-16T20:33:56.035Z,12.03
2022-09-16T20:36:24.502Z,11.97
2022-09-16T20:38:52.394Z,11.92
2022-09-16T20:41:25.159Z,11.88
2022-09-16T20:43:52.453Z,11.86
2022-09-16T20:46:25.181Z,11.84
2022-09-16T20:48:54.469Z,11.84
2022-09-16T20:51:23.981Z,11.87
2022-09-16T20:54:01.764Z,11.89
2022-09-16T20:56:37.995Z,11.88
2022-09-16T20:59:07.418Z,11.86
2022-09-16T21:01:35.227Z,11.84
2022-09-16T21:04:04.765Z,11.86
2022-09-16T21:06:33.821Z,11.87
2022-09-16T21:09:03.966Z,11.90
2022-09-16T21:11:31.157Z,11.93
2022-09-16T21:14:08.571Z,11.94
2022-09-16T21:16:37.288Z,11.93
2022-09-16T21:19:06.612Z,11.97
2022-09-16T21:21:33.668Z,11.95
2022-09-16T21:24:01.309Z,11.94
2022-09-16T21:26:30.985Z,11.97
2022-09-16T21:29:00.313Z,11.94
2022-09-16T21:31:29.553Z,11.95
2022-09-16T21:33:56.828Z,11.96
2022-09-16T21:36:24.577Z,11.98
2022-09-16T21:38:51.642Z,11.98
2022-09-16T21:41:21.280Z,11.98
2022-09-16T21:43:55.427Z,11.92
2022-09-16T21:46:28.530Z,11.92
2022-09-16T21:49:01.996Z,11.91
2022-09-16T21:51:34.949Z,11.89
2022-09-16T21:54:06.760Z,11.92
2022-09-16T21:56:33.401Z,11.90
2022-09-16T21:59:00.234Z,11.92
2022-09-16T22:01:30.062Z,11.94
2022-09-16T22:04:21.573Z,11.90
2022-09-16T22:06:49.358Z,11.93
2022-09-16T22:09:18.150Z,11.98
2022-09-16T22:11:44.676Z,11.90
2022-09-16T22:14:11.314Z,11.88
2022-09-16T22:16:39.080Z,11.90
2022-09-16T22:19:12.309Z,11.88
2022-09-16T22:21:41.985Z,11.90
2022-09-16T22:24:09.447Z,11.92
2022-09-16T22:26:36.655Z,11.87
2022-09-16T22:29:03.609Z,11.88
2022-09-16T22:31:32.310Z,11.88
2022-09-16T22:34:01.189Z,11.92
2022-09-16T22:36:30.869Z,11.92
2022-09-16T22:39:04.292Z,11.91
2022-09-16T22:41:31.148Z,11.87
2022-09-16T22:43:57.617Z,11.82
2022-09-16T22:46:29.818Z,11.75
2022-09-16T22:48:57.992Z,11.71
2022-09-16T22:51:25.205Z,11.67
2022-09-16T22:53:51.691Z,11.63
2022-09-16T22:56:28.405Z,11.57
2022-09-16T22:58:56.947Z,11.53
2022-09-16T23:01:31.941Z,11.61
2022-09-16T23:04:01.678Z,11.59
2022-09-16T23:06:30.180Z,11.60
2022-09-16T23:08:57.114Z,11.51
2022-09-16T23:11:28.606Z,11.48
2022-09-16T23:13:56.449Z,11.47
2022-09-16T23:16:30.162Z,11.48
2022-09-16T23:18:58.821Z,11.49
2022-09-16T23:21:26.235Z,11.51
2022-09-16T23:23:56.114Z,11.49
2022-09-16T23:26:30.037Z,11.51
2022-09-16T23:28:58.876Z,11.52
2022-09-16T23:31:28.170Z,11.53
2022-09-16T23:33:55.182Z,11.54
2022-09-16T23:36:22.646Z,11.55
2022-09-16T23:38:49.300Z,11.64
2022-09-16T23:41:19.451Z,11.58
2022-09-16T23:43:47.149Z,11.52
2022-09-16T23:46:15.741Z,11.42
2022-09-16T23:48:44.142Z,11.39
2022-09-16T23:51:11.886Z,11.37
2022-09-16T23:53:39.501Z,11.35
2022-09-16T23:56:11.161Z,11.36
2022-09-16T23:58:37.951Z,11.36
